createdAt,value
2018-05-23T00:01:25.868Z,3.23
2018-05-23T00:03:54.609Z,3.10
2018-05-23T00:06:23.978Z,3.10
2018-05-23T00:08:52.765Z,3.17
2018-05-23T00:11:21.433Z,2.97
2018-05-23T00:13:50.234Z,3.00
2018-05-23T00:16:19.166Z,3.60
2018-05-23T00:18:48.014Z,3.10
2018-05-23T00:21:16.977Z,3.03
2018-05-23T00:23:45.693Z,3.40
2018-05-23T00:26:14.386Z,3.43
2018-05-23T00:28:43.155Z,3.27
2018-05-23T00:31:11.851Z,3.40
2018-05-23T00:33:40.837Z,3.13
2018-05-23T00:36:09.376Z,3.70
2018-05-23T00:38:38.248Z,3.37
2018-05-23T00:41:07.416Z,3.20
2018-05-23T00:43:36.480Z,3.73
2018-05-23T00:46:05.601Z,3.50
2018-05-23T00:48:34.292Z,3.47
2018-05-23T00:51:03.391Z,3.77
2018-05-23T00:53:32.075Z,3.50
2018-05-23T00:56:01.180Z,3.00
2018-05-23T00:58:29.868Z,3.40
2018-05-23T01:00:58.525Z,3.47
2018-05-23T01:03:27.620Z,3.40
2018-05-23T01:05:56.313Z,3.33
2018-05-23T01:08:25.006Z,3.67
2018-05-23T01:10:53.995Z,3.63
2018-05-23T01:13:22.791Z,3.40
2018-05-23T01:15:51.804Z,4.00
2018-05-23T01:18:20.472Z,3.77
2018-05-23T01:20:48.997Z,3.57
2018-05-23T01:23:17.948Z,3.60
2018-05-23T01:25:47.041Z,3.53
2018-05-23T01:28:16.139Z,3.90
2018-05-23T01:30:44.826Z,3.70
2018-05-23T01:33:13.512Z,3.60
2018-05-23T01:35:42.196Z,3.77
2018-05-23T01:38:11.296Z,3.57
2018-05-23T01:40:40.301Z,3.77
2018-05-23T01:43:09.467Z,3.60
2018-05-23T01:45:38.993Z,3.30
2018-05-23T01:48:07.493Z,3.77
2018-05-23T01:50:36.271Z,3.63
2018-05-23T01:53:04.960Z,3.50
2018-05-23T01:55:33.703Z,3.77
2018-05-23T01:58:02.673Z,3.60
2018-05-23T02:00:31.414Z,3.93
2018-05-23T02:03:00.206Z,4.43
2018-05-23T02:05:29.085Z,4.10
2018-05-23T02:07:57.938Z,4.17
2018-05-23T02:10:26.668Z,3.97
2018-05-23T02:12:56.072Z,4.57
2018-05-23T02:15:25.268Z,4.53
2018-05-23T02:17:54.282Z,4.43
2018-05-23T02:20:23.023Z,4.20
2018-05-23T02:22:52.016Z,4.10
2018-05-23T02:25:20.735Z,4.47
2018-05-23T02:27:49.519Z,4.07
2018-05-23T02:30:18.469Z,4.30
2018-05-23T02:32:47.282Z,4.30
2018-05-23T02:35:15.982Z,4.17
2018-05-23T02:37:45.080Z,4.27
2018-05-23T02:40:13.714Z,4.03
2018-05-23T02:42:42.405Z,4.20
2018-05-23T02:45:11.288Z,4.40
2018-05-23T02:47:40.162Z,4.27
2018-05-23T02:50:09.329Z,4.17
2018-05-23T02:52:38.425Z,4.50
2018-05-23T02:55:07.524Z,3.83
2018-05-23T02:57:36.530Z,4.33
2018-05-23T03:00:05.224Z,3.97
2018-05-23T03:02:33.987Z,3.87
2018-05-23T03:05:02.931Z,3.67
2018-05-23T03:07:31.625Z,4.10
2018-05-23T03:10:00.342Z,4.17
2018-05-23T03:12:29.863Z,4.03
2018-05-23T03:14:58.927Z,3.57
2018-05-23T03:17:27.694Z,3.90
2018-05-23T03:19:56.737Z,3.93
2018-05-23T03:22:25.931Z,3.80
2018-05-23T03:24:54.946Z,3.40
2018-05-23T03:27:24.113Z,4.17
2018-05-23T03:29:53.103Z,3.70
2018-05-23T03:32:21.849Z,3.90
2018-05-23T03:34:51.004Z,3.90
2018-05-23T03:37:19.684Z,4.03
2018-05-23T03:39:48.782Z,4.73
2018-05-23T03:42:17.789Z,5.30
2018-05-23T03:44:46.981Z,4.80
2018-05-23T03:47:15.977Z,4.80
2018-05-23T03:49:44.641Z,5.17
2018-05-23T03:52:13.854Z,4.70
2018-05-23T03:54:42.778Z,5.03
2018-05-23T03:57:11.517Z,4.77
2018-05-23T03:59:52.195Z,4.97
2018-05-23T04:02:32.316Z,4.90
2018-05-23T04:05:12.632Z,4.77
2018-05-23T04:07:41.616Z,4.50
2018-05-23T04:10:10.601Z,4.70
2018-05-23T04:12:39.697Z,4.70
2018-05-23T04:15:08.393Z,4.70
2018-05-23T04:17:37.573Z,4.70
2018-05-23T04:20:06.117Z,4.67
2018-05-23T04:22:35.263Z,4.47
2018-05-23T04:25:04.042Z,4.80
2018-05-23T04:27:32.674Z,4.90
2018-05-23T04:30:01.422Z,4.43
2018-05-23T04:32:30.757Z,4.90
2018-05-23T04:34:59.525Z,4.70
2018-05-23T04:37:28.218Z,4.90
2018-05-23T04:39:57.387Z,5.00
2018-05-23T04:42:26.483Z,5.00
2018-05-23T04:44:55.172Z,4.80
2018-05-23T04:47:23.865Z,4.90
2018-05-23T04:49:53.361Z,5.20
2018-05-23T04:52:22.047Z,4.87
2018-05-23T04:54:51.146Z,5.17
2018-05-23T04:57:20.238Z,5.17
2018-05-23T04:59:49.745Z,5.20
2018-05-23T05:02:18.768Z,4.87
2018-05-23T05:04:47.931Z,4.80
2018-05-23T05:07:17.036Z,5.07
2018-05-23T05:09:46.046Z,4.50
2018-05-23T05:12:15.225Z,4.90
2018-05-23T05:14:43.879Z,5.20
2018-05-23T05:17:13.002Z,5.50
2018-05-23T05:19:41.889Z,5.53
2018-05-23T05:22:10.682Z,5.33
2018-05-23T05:24:39.374Z,5.40
2018-05-23T05:27:08.572Z,5.17
2018-05-23T05:29:37.663Z,5.50
2018-05-23T05:32:06.651Z,6.27
2018-05-23T05:34:35.340Z,5.37
2018-05-23T05:37:04.036Z,5.47
2018-05-23T05:39:33.203Z,5.67
2018-05-23T05:42:01.896Z,5.63
2018-05-23T05:44:31.014Z,5.60
2018-05-23T05:46:59.553Z,5.10
2018-05-23T05:49:28.791Z,6.00
2018-05-23T05:51:57.883Z,5.80
2018-05-23T05:54:26.557Z,5.43
2018-05-23T05:56:55.254Z,5.77
2018-05-23T05:59:24.352Z,6.20
2018-05-23T06:01:53.078Z,5.97
2018-05-23T06:04:22.542Z,5.67
2018-05-23T06:06:51.637Z,5.83
2018-05-23T06:09:20.314Z,6.07
2018-05-23T06:11:49.417Z,6.30
2018-05-23T06:14:18.514Z,5.93
2018-05-23T06:16:47.534Z,6.03
2018-05-23T06:19:16.276Z,6.00
2018-05-23T06:21:45.257Z,6.23
2018-05-23T06:24:13.989Z,6.03
2018-05-23T06:26:43.182Z,6.27
2018-05-23T06:29:12.171Z,6.20
2018-05-23T06:31:40.839Z,5.67
2018-05-23T06:34:09.532Z,6.03
2018-05-23T06:36:38.224Z,6.13
2018-05-23T06:39:07.342Z,5.63
2018-05-23T06:41:36.521Z,5.77
2018-05-23T06:44:05.527Z,5.97
2018-05-23T06:46:34.645Z,5.97
2018-05-23T06:49:03.737Z,6.10
2018-05-23T06:51:32.903Z,5.87
2018-05-23T06:54:01.592Z,5.53
2018-05-23T06:56:30.562Z,5.50
2018-05-23T06:58:59.278Z,5.37
2018-05-23T07:01:28.444Z,5.60
2018-05-23T07:03:57.147Z,5.90
2018-05-23T07:06:26.247Z,5.50
2018-05-23T07:08:54.935Z,5.67
2018-05-23T07:11:23.990Z,5.60
2018-05-23T07:13:52.632Z,5.70
2018-05-23T07:16:21.811Z,5.50
2018-05-23T07:18:50.287Z,5.73
2018-05-23T07:21:19.162Z,5.80
2018-05-23T07:23:47.801Z,5.47
2018-05-23T07:26:16.960Z,5.80
2018-05-23T07:28:46.466Z,5.40
2018-05-23T07:31:15.156Z,5.50
2018-05-23T07:33:43.841Z,5.47
2018-05-23T07:36:12.911Z,5.07
2018-05-23T07:38:41.620Z,5.47
2018-05-23T07:41:10.718Z,5.57
2018-05-23T07:43:39.485Z,5.33
2018-05-23T07:46:08.406Z,5.40
2018-05-23T07:48:37.592Z,5.87
2018-05-23T07:51:06.691Z,5.73
2018-05-23T07:53:35.781Z,5.67
2018-05-23T07:56:04.775Z,5.37
2018-05-23T07:58:33.466Z,5.40
2018-05-23T08:01:02.046Z,5.50
2018-05-23T08:03:30.943Z,5.43
2018-05-23T08:05:59.595Z,5.83
2018-05-23T08:08:28.643Z,5.47
2018-05-23T08:10:57.814Z,5.87
2018-05-23T08:13:26.309Z,5.57
2018-05-23T08:15:54.800Z,5.80
2018-05-23T08:18:23.736Z,5.80
2018-05-23T08:20:52.976Z,5.43
2018-05-23T08:23:22.069Z,5.77
2018-05-23T08:25:50.756Z,5.53
2018-05-23T08:28:19.399Z,5.70
2018-05-23T08:30:48.441Z,5.10
2018-05-23T08:33:17.135Z,5.60
2018-05-23T08:35:45.801Z,5.27
2018-05-23T08:38:14.918Z,5.40
2018-05-23T08:40:44.013Z,5.50
2018-05-23T08:43:12.704Z,5.10
2018-05-23T08:45:41.445Z,5.83
2018-05-23T08:48:10.464Z,5.60
2018-05-23T08:50:39.657Z,5.83
2018-05-23T08:53:08.650Z,5.30
2018-05-23T08:55:37.691Z,5.70
2018-05-23T08:58:06.381Z,5.20
2018-05-23T09:00:35.233Z,5.47
2018-05-23T09:03:04.325Z,5.13
2018-05-23T09:05:33.413Z,5.20
2018-05-23T09:08:02.451Z,5.23
2018-05-23T09:10:31.602Z,5.17
2018-05-23T09:13:00.587Z,4.63
2018-05-23T09:15:30.206Z,5.50
2018-05-23T09:17:59.221Z,5.27
2018-05-23T09:20:28.396Z,4.40
2018-05-23T09:22:57.832Z,4.80
2018-05-23T09:25:26.666Z,5.00
2018-05-23T09:27:55.512Z,4.90
2018-05-23T09:30:24.281Z,4.53
2018-05-23T09:32:53.478Z,4.97
2018-05-23T09:35:22.442Z,5.23
2018-05-23T09:37:50.984Z,5.10
2018-05-23T09:40:19.873Z,5.00
2018-05-23T09:42:49.033Z,5.03
2018-05-23T09:45:18.083Z,4.60
2018-05-23T09:47:46.751Z,4.73
2018-05-23T09:50:15.492Z,5.20
2018-05-23T09:52:44.538Z,4.77
2018-05-23T09:55:13.681Z,4.33
2018-05-23T09:57:42.674Z,4.80
2018-05-23T10:00:11.469Z,4.10
2018-05-23T10:02:40.767Z,4.30
2018-05-23T10:05:09.654Z,4.50
2018-05-23T10:07:38.760Z,4.60
2018-05-23T10:10:07.435Z,4.33
2018-05-23T10:12:36.139Z,4.50
2018-05-23T10:15:05.643Z,4.50
2018-05-23T10:17:34.634Z,4.30
2018-05-23T10:20:03.365Z,4.33
2018-05-23T10:22:32.099Z,4.47
2018-05-23T10:25:00.786Z,4.37
2018-05-23T10:27:29.779Z,4.13
2018-05-23T10:29:58.978Z,4.67
2018-05-23T10:32:27.989Z,4.67
2018-05-23T10:34:57.171Z,4.70
2018-05-23T10:37:25.854Z,4.60
2018-05-23T10:39:55.350Z,4.20
2018-05-23T10:42:24.858Z,4.30
2018-05-23T10:44:53.853Z,4.40
2018-05-23T10:47:22.644Z,4.00
2018-05-23T10:49:52.973Z,4.30
2018-05-23T10:52:21.901Z,4.40
2018-05-23T10:54:50.806Z,4.03
2018-05-23T10:57:19.846Z,4.30
2018-05-23T10:59:48.845Z,4.20
2018-05-23T11:02:17.579Z,4.10
2018-05-23T11:04:46.638Z,4.50
2018-05-23T11:07:15.326Z,4.40
2018-05-23T11:09:44.423Z,4.13
2018-05-23T11:12:13.602Z,4.00
2018-05-23T11:14:42.958Z,3.70
2018-05-23T11:17:11.699Z,3.60
2018-05-23T11:19:40.790Z,4.10
2018-05-23T11:22:09.393Z,4.10
2018-05-23T11:24:38.678Z,4.00
2018-05-23T11:27:07.354Z,3.93
2018-05-23T11:29:36.525Z,3.77
2018-05-23T11:32:04.983Z,3.77
2018-05-23T11:34:33.723Z,3.57
2018-05-23T11:37:02.921Z,3.77
2018-05-23T11:39:31.932Z,3.30
2018-05-23T11:42:01.049Z,3.40
2018-05-23T11:44:30.208Z,3.60
2018-05-23T11:46:59.182Z,3.20
2018-05-23T11:49:27.899Z,3.40
2018-05-23T11:51:57.089Z,3.33
2018-05-23T11:54:26.589Z,3.40
2018-05-23T11:56:55.677Z,3.10
2018-05-23T11:59:24.619Z,3.23
2018-05-23T12:01:54.386Z,3.50
2018-05-23T12:04:23.303Z,2.87
2018-05-23T12:06:52.066Z,3.50
2018-05-23T12:09:21.163Z,3.00
2018-05-23T12:11:50.105Z,3.57
2018-05-23T12:14:19.322Z,3.37
2018-05-23T12:16:48.041Z,3.33
2018-05-23T12:19:17.034Z,3.20
2018-05-23T12:21:45.700Z,3.00
2018-05-23T12:24:14.510Z,3.03
2018-05-23T12:26:43.560Z,3.30
2018-05-23T12:29:12.698Z,2.80
2018-05-23T12:31:41.383Z,3.00
2018-05-23T12:34:10.366Z,3.20
2018-05-23T12:36:39.577Z,3.20
2018-05-23T12:39:08.588Z,2.63
2018-05-23T12:41:37.265Z,3.10
2018-05-23T12:44:06.464Z,2.90
2018-05-23T12:46:35.449Z,2.70
2018-05-23T12:49:04.092Z,2.80
2018-05-23T12:51:32.836Z,3.13
2018-05-23T12:54:01.525Z,2.87
2018-05-23T12:56:30.293Z,2.90
2018-05-23T12:58:59.183Z,3.03
2018-05-23T13:01:27.978Z,2.80
2018-05-23T13:03:57.167Z,2.93
2018-05-23T13:06:26.675Z,2.80
2018-05-23T13:08:55.172Z,2.93
2018-05-23T13:11:23.850Z,2.83
2018-05-23T13:13:52.736Z,2.67
2018-05-23T13:16:21.731Z,2.60
2018-05-23T13:18:51.130Z,3.00
2018-05-23T13:21:20.019Z,2.90
2018-05-23T13:23:48.958Z,2.70
2018-05-23T13:26:17.803Z,2.97
2018-05-23T13:28:46.288Z,2.70
2018-05-23T13:31:15.017Z,2.60
2018-05-23T13:33:43.751Z,2.70
2018-05-23T13:36:12.955Z,2.80
2018-05-23T13:38:42.109Z,2.80
2018-05-23T13:41:11.361Z,2.40
2018-05-23T13:43:40.247Z,2.50
2018-05-23T13:46:09.519Z,2.80
2018-05-23T13:48:39.254Z,2.30
2018-05-23T13:51:08.387Z,2.50
2018-05-23T13:53:37.765Z,2.50
2018-05-23T13:56:06.495Z,2.33
2018-05-23T13:58:35.930Z,2.40
2018-05-23T14:01:04.618Z,2.50
2018-05-23T14:03:33.436Z,2.50
2018-05-23T14:06:03.533Z,2.50
2018-05-23T14:08:32.396Z,2.43
2018-05-23T14:11:01.838Z,2.47
2018-05-23T14:13:30.620Z,2.47
2018-05-23T14:16:00.736Z,2.40
2018-05-23T14:18:29.419Z,2.50
2018-05-23T14:20:58.313Z,2.33
2018-05-23T14:23:27.076Z,2.40
2018-05-23T14:25:57.305Z,2.40
2018-05-23T14:28:26.029Z,2.53
2018-05-23T14:30:55.802Z,2.70
2018-05-23T14:33:26.455Z,2.50
2018-05-23T14:35:55.794Z,2.60
2018-05-23T14:38:26.787Z,2.37
2018-05-23T14:40:55.994Z,2.33
2018-05-23T14:43:25.914Z,2.60
2018-05-23T14:45:56.155Z,2.87
2018-05-23T14:48:24.874Z,2.67
2018-05-23T14:50:53.816Z,2.30
2018-05-23T14:53:23.524Z,2.43
2018-05-23T14:55:52.474Z,2.20
2018-05-23T14:58:22.469Z,2.33
2018-05-23T15:00:51.222Z,2.10
2018-05-23T15:03:19.711Z,2.10
2018-05-23T15:05:48.382Z,2.20
2018-05-23T15:08:17.183Z,2.20
2018-05-23T15:10:46.260Z,2.40
2018-05-23T15:13:16.295Z,1.87
2018-05-23T15:15:45.790Z,2.13
2018-05-23T15:18:16.566Z,2.10
2018-05-23T15:20:45.555Z,2.13
2018-05-23T15:23:14.925Z,1.73
2018-05-23T15:25:44.195Z,2.00
2018-05-23T15:28:13.316Z,2.00
2018-05-23T15:30:43.140Z,2.37
2018-05-23T15:33:11.807Z,2.00
2018-05-23T15:35:41.836Z,2.00
2018-05-23T15:38:11.024Z,2.10
2018-05-23T15:40:40.841Z,2.30
2018-05-23T15:43:09.544Z,2.00
2018-05-23T15:45:38.545Z,1.77
2018-05-23T15:48:07.311Z,2.03
2018-05-23T15:50:36.104Z,1.90
2018-05-23T15:53:05.818Z,2.00
2018-05-23T15:55:35.006Z,2.20
2018-05-23T15:58:03.515Z,1.97
2018-05-23T16:00:32.382Z,1.90
2018-05-23T16:03:02.595Z,2.10
2018-05-23T16:05:32.685Z,2.00
2018-05-23T16:08:01.663Z,2.00
2018-05-23T16:10:30.745Z,2.03
2018-05-23T16:12:59.727Z,2.30
2018-05-23T16:15:29.616Z,1.90
2018-05-23T16:17:58.391Z,1.93
2018-05-23T16:20:28.838Z,1.90
2018-05-23T16:22:59.052Z,1.70
2018-05-23T16:25:28.663Z,1.90
2018-05-23T16:27:57.364Z,1.90
2018-05-23T16:30:27.263Z,2.00
2018-05-23T16:32:56.273Z,2.00
2018-05-23T16:35:25.042Z,1.97
2018-05-23T16:37:54.138Z,1.80
2018-05-23T16:40:23.231Z,1.93
2018-05-23T16:42:51.927Z,1.80
2018-05-23T16:45:20.607Z,1.73
2018-05-23T16:47:49.092Z,1.83
2018-05-23T16:50:17.868Z,1.77
2018-05-23T16:52:47.070Z,1.77
2018-05-23T16:55:16.168Z,1.87
2018-05-23T16:57:45.678Z,1.57
2018-05-23T17:00:14.685Z,1.90
2018-05-23T17:02:43.189Z,1.80
2018-05-23T17:05:12.149Z,1.77
2018-05-23T17:07:40.763Z,1.80
2018-05-23T17:10:09.467Z,1.60
2018-05-23T17:12:38.189Z,1.70
2018-05-23T17:15:07.302Z,1.77
2018-05-23T17:17:36.308Z,1.90
2018-05-23T17:20:05.004Z,2.03
2018-05-23T17:22:34.172Z,1.60
2018-05-23T17:25:02.758Z,1.90
2018-05-23T17:27:32.138Z,2.00
2018-05-23T17:30:00.580Z,1.70
2018-05-23T17:32:30.014Z,1.57
2018-05-23T17:34:58.514Z,1.77
2018-05-23T17:37:28.245Z,1.73
2018-05-23T17:39:57.815Z,1.60
2018-05-23T17:42:26.458Z,1.70
2018-05-23T17:44:55.123Z,1.83
2018-05-23T17:47:23.902Z,1.70
2018-05-23T17:49:52.591Z,1.77
2018-05-23T17:52:21.606Z,1.60
2018-05-23T17:54:50.776Z,1.90
2018-05-23T17:57:19.759Z,2.07
2018-05-23T17:59:48.560Z,1.60
2018-05-23T18:02:17.655Z,2.10
2018-05-23T18:04:47.982Z,2.00
2018-05-23T18:07:17.074Z,1.90
2018-05-23T18:09:45.747Z,2.07
2018-05-23T18:12:14.902Z,2.03
2018-05-23T18:14:43.393Z,2.00
2018-05-23T18:17:12.149Z,2.00
2018-05-23T18:19:41.191Z,2.40
2018-05-23T18:22:10.012Z,1.90
2018-05-23T18:24:38.691Z,2.27
2018-05-23T18:27:07.618Z,2.10
2018-05-23T18:29:36.524Z,2.37
2018-05-23T18:32:05.577Z,2.40
2018-05-23T18:34:34.246Z,2.30
2018-05-23T18:37:02.954Z,2.10
2018-05-23T18:39:32.447Z,2.03
2018-05-23T18:42:01.544Z,2.20
2018-05-23T18:44:30.045Z,2.23
2018-05-23T18:46:58.551Z,2.37
2018-05-23T18:49:27.599Z,2.30
2018-05-23T18:51:56.217Z,2.50
2018-05-23T18:54:24.990Z,2.33
2018-05-23T18:56:54.175Z,2.30
2018-05-23T18:59:23.530Z,2.63
2018-05-23T19:01:52.264Z,2.03
2018-05-23T19:04:20.953Z,2.70
2018-05-23T19:06:49.836Z,3.60
2018-05-23T19:09:20.372Z,2.60
2018-05-23T19:11:49.257Z,2.77
2018-05-23T19:14:18.048Z,2.63
2018-05-23T19:16:46.741Z,2.67
2018-05-23T19:19:15.530Z,2.50
2018-05-23T19:21:44.613Z,2.37
2018-05-23T19:24:13.720Z,2.40
2018-05-23T19:26:42.707Z,2.40
2018-05-23T19:29:11.374Z,2.40
2018-05-23T19:31:40.092Z,2.43
2018-05-23T19:34:08.765Z,2.27
2018-05-23T19:36:37.804Z,2.50
2018-05-23T19:39:06.652Z,2.57
2018-05-23T19:41:35.743Z,2.23
2018-05-23T19:44:04.632Z,2.20
2018-05-23T19:46:33.420Z,2.20
2018-05-23T19:49:02.214Z,2.30
2018-05-23T19:51:30.900Z,2.07
2018-05-23T19:53:59.581Z,2.30
2018-05-23T19:56:28.284Z,2.20
2018-05-23T19:58:57.656Z,2.50
2018-05-23T20:01:27.284Z,2.00
2018-05-23T20:03:57.116Z,2.00
2018-05-23T20:06:25.884Z,2.30
2018-05-23T20:08:54.900Z,2.30
2018-05-23T20:11:23.659Z,2.20
2018-05-23T20:13:52.297Z,2.20
2018-05-23T20:16:21.445Z,2.17
2018-05-23T20:18:50.289Z,2.10
2018-05-23T20:21:19.225Z,2.50
2018-05-23T20:23:47.677Z,2.20
2018-05-23T20:26:18.071Z,2.30
2018-05-23T20:28:46.813Z,2.13
2018-05-23T20:31:15.504Z,2.10
2018-05-23T20:33:44.620Z,2.30
2018-05-23T20:36:13.316Z,2.50
2018-05-23T20:38:42.490Z,2.60
2018-05-23T20:41:11.150Z,2.50
2018-05-23T20:43:40.190Z,2.20
2018-05-23T20:46:08.858Z,2.33
2018-05-23T20:48:37.394Z,2.20
2018-05-23T20:51:06.240Z,2.30
2018-05-23T20:53:35.422Z,2.13
2018-05-23T20:56:04.514Z,2.10
2018-05-23T20:58:33.631Z,2.17
2018-05-23T21:01:02.611Z,2.10
2018-05-23T21:03:31.379Z,2.20
2018-05-23T21:06:00.492Z,2.40
2018-05-23T21:08:29.089Z,2.50
2018-05-23T21:10:58.580Z,2.50
2018-05-23T21:13:27.273Z,2.23
2018-05-23T21:15:55.937Z,2.37
2018-05-23T21:18:24.629Z,2.50
2018-05-23T21:20:53.322Z,2.20
2018-05-23T21:23:22.013Z,2.40
2018-05-23T21:25:50.684Z,2.37
2018-05-23T21:28:19.478Z,2.20
2018-05-23T21:30:48.575Z,2.37
2018-05-23T21:33:17.208Z,2.53
2018-05-23T21:35:45.953Z,2.20
2018-05-23T21:38:14.426Z,2.30
2018-05-23T21:40:42.953Z,2.60
2018-05-23T21:43:11.977Z,2.17
2018-05-23T21:45:40.671Z,1.90
2018-05-23T21:48:09.367Z,2.40
2018-05-23T21:50:38.475Z,2.13
2018-05-23T21:53:07.576Z,2.20
2018-05-23T21:55:36.665Z,2.00
2018-05-23T21:58:05.604Z,2.27
2018-05-23T22:00:34.447Z,2.00
2018-05-23T22:03:03.468Z,2.27
2018-05-23T22:05:32.631Z,2.13
2018-05-23T22:08:01.738Z,2.30
2018-05-23T22:10:30.391Z,2.10
2018-05-23T22:12:59.516Z,2.23
2018-05-23T22:15:28.527Z,2.17
2018-05-23T22:17:58.021Z,2.03
2018-05-23T22:20:26.709Z,2.13
2018-05-23T22:22:55.375Z,2.20
2018-05-23T22:25:24.067Z,2.03
2018-05-23T22:27:52.764Z,2.17
2018-05-23T22:30:21.535Z,2.00
2018-05-23T22:32:50.844Z,2.00
2018-05-23T22:35:19.663Z,2.10
2018-05-23T22:37:48.353Z,2.00
2018-05-23T22:40:17.059Z,1.90
2018-05-23T22:42:46.112Z,2.00
2018-05-23T22:45:14.782Z,1.90
2018-05-23T22:47:43.577Z,1.87
2018-05-23T22:50:12.672Z,1.93
2018-05-23T22:52:41.774Z,1.90
2018-05-23T22:55:10.423Z,2.10
2018-05-23T22:57:39.391Z,2.00
2018-05-23T23:00:08.648Z,2.10
2018-05-23T23:02:37.252Z,2.00
2018-05-23T23:05:06.420Z,1.97
2018-05-23T23:07:35.933Z,2.03
2018-05-23T23:10:04.878Z,2.10
2018-05-23T23:12:33.594Z,2.10
2018-05-23T23:15:02.384Z,2.10
2018-05-23T23:17:31.084Z,2.23
2018-05-23T23:20:00.070Z,2.27
2018-05-23T23:22:39.106Z,2.00
2018-05-23T23:25:08.103Z,2.30
2018-05-23T23:27:36.889Z,2.37
2018-05-23T23:30:06.361Z,2.40
2018-05-23T23:32:35.803Z,2.17
2018-05-23T23:35:04.524Z,2.03
2018-05-23T23:37:34.104Z,2.50
2018-05-23T23:40:03.033Z,2.50
2018-05-23T23:42:31.799Z,3.17
2018-05-23T23:45:01.377Z,4.60
2018-05-23T23:47:30.306Z,5.30
2018-05-23T23:49:59.050Z,4.80
2018-05-23T23:52:27.844Z,4.80
2018-05-23T23:54:56.530Z,5.27
2018-05-23T23:57:25.475Z,5.33
2018-05-23T23:59:54.064Z,4.70
